createdAt,value
2023-06-04T00:00:41.981Z,1.248
2023-06-04T00:01:42.030Z,1.211
2023-06-04T00:02:42.136Z,1.23
2023-06-04T00:03:42.179Z,1.23
2023-06-04T00:04:42.135Z,1.249
2023-06-04T00:05:41.103Z,1.202
2023-06-04T00:06:41.128Z,1.118
2023-06-04T00:07:41.196Z,1.08
2023-06-04T00:08:41.203Z,1.023
2023-06-04T00:09:41.210Z,1.061
2023-06-04T00:10:41.224Z,1.042
2023-06-04T00:11:41.260Z,1.034
2023-06-04T00:12:41.257Z,1.025
2023-06-04T00:13:41.288Z,0.9306
2023-06-04T00:14:41.297Z,0.9405
2023-06-04T00:15:41.313Z,0.9504
2023-06-04T00:16:41.394Z,1.026
2023-06-04T00:17:41.380Z,1.054
2023-06-04T00:18:41.359Z,1.091
2023-06-04T00:19:41.364Z,1.11
2023-06-04T00:20:41.396Z,1.128
2023-06-04T00:21:41.413Z,1.054
2023-06-04T00:22:41.394Z,1.054
2023-06-04T00:23:41.454Z,1.109
2023-06-04T00:24:41.412Z,1.109
2023-06-04T00:25:41.442Z,1.004
2023-06-04T00:26:41.501Z,0.9674
2023-06-04T00:27:41.504Z,0.9311
2023-06-04T00:28:41.508Z,0.9859
2023-06-04T00:29:41.532Z,0.9821
2023-06-04T00:30:41.566Z,0.9459
2023-06-04T00:31:41.587Z,0.9477
2023-06-04T00:32:41.619Z,0.9296
2023-06-04T00:33:41.608Z,0.9112
2023-06-04T00:34:41.647Z,0.9136
2023-06-04T00:35:41.651Z,0.9463
2023-06-04T00:36:41.699Z,0.9463
2023-06-04T00:37:41.677Z,0.9463
2023-06-04T00:38:41.707Z,1.001
2023-06-04T00:39:41.726Z,0.9997
2023-06-04T00:40:41.716Z,0.9631
2023-06-04T00:41:41.735Z,0.9407
2023-06-04T00:42:41.745Z,0.9286
2023-06-04T00:43:41.763Z,0.8528
2023-06-04T00:44:41.775Z,0.8528
2023-06-04T00:45:41.815Z,0.8521
2023-06-04T00:46:41.782Z,0.8305
2023-06-04T00:47:41.837Z,0.8672
2023-06-04T00:48:41.803Z,0.9397
2023-06-04T00:49:41.862Z,0.9762
2023-06-04T00:50:41.856Z,0.9725
2023-06-04T00:51:41.877Z,0.8732
2023-06-04T00:52:41.904Z,0.814
2023-06-04T00:53:41.925Z,0.7957
2023-06-04T00:54:41.964Z,0.7592
2023-06-04T00:55:41.987Z,0.7042
2023-06-04T00:56:41.988Z,0.6858
2023-06-04T00:57:42.009Z,0.6337
2023-06-04T00:58:42.035Z,0.6337
2023-06-04T00:59:42.063Z,0.5746
2023-06-04T01:00:42.112Z,0.5209
2023-06-04T01:01:41.265Z,0.5762
2023-06-04T01:02:41.157Z,0.613
2023-06-04T01:03:41.151Z,0.613
2023-06-04T01:04:41.140Z,0.5762
2023-06-04T01:05:41.157Z,0.6456
2023-06-04T01:06:41.167Z,0.6658
2023-06-04T01:07:41.183Z,0.6319
2023-06-04T01:08:41.178Z,0.6319
2023-06-04T01:09:41.185Z,0.65
2023-06-04T01:10:41.197Z,0.6468
2023-06-04T01:11:41.223Z,0.5922
2023-06-04T01:12:41.256Z,0.5922
2023-06-04T01:13:41.265Z,0.6244
2023-06-04T01:14:41.287Z,0.5903
2023-06-04T01:15:41.309Z,0.5722
2023-06-04T01:16:41.356Z,0.5541
2023-06-04T01:17:41.398Z,0.5196
2023-06-04T01:18:41.381Z,0.5196
2023-06-04T01:19:41.405Z,0.5196
2023-06-04T01:20:41.422Z,0.5739
2023-06-04T01:21:41.433Z,0.5003
2023-06-04T01:22:41.473Z,0.5183
2023-06-04T01:23:41.498Z,0.4959
2023-06-04T01:24:41.482Z,0.4598
2023-06-04T01:25:41.502Z,0.4779
2023-06-04T01:26:41.510Z,0.4959
2023-06-04T01:27:41.548Z,0.55
2023-06-04T01:28:41.570Z,0.5635
2023-06-04T01:29:41.554Z,0.5469
2023-06-04T01:30:41.571Z,0.548
2023-06-04T01:31:41.615Z,0.566
2023-06-04T01:32:41.657Z,0.5837
2023-06-04T01:33:41.587Z,0.566
2023-06-04T01:34:41.617Z,0.5671
2023-06-04T01:35:41.643Z,0.4732
2023-06-04T01:36:41.679Z,0.4552
2023-06-04T01:37:41.704Z,0.4194
2023-06-04T01:38:41.728Z,0.3296
2023-06-04T01:39:41.746Z,0.2245
2023-06-04T01:40:41.761Z,0.2215
2023-06-04T01:41:41.784Z,0.2563
2023-06-04T01:42:41.805Z,0.2743
2023-06-04T01:43:41.859Z,0.2348
2023-06-04T01:44:41.856Z,0.2708
2023-06-04T01:45:41.885Z,0.3414
2023-06-04T01:46:41.927Z,0.3034
2023-06-04T01:47:41.949Z,0.2855
2023-06-04T01:48:42.033Z,0.2676
2023-06-04T01:49:41.972Z,0.2676
2023-06-04T01:50:41.994Z,0.2452
2023-06-04T01:51:41.997Z,0.3034
2023-06-04T01:52:42.012Z,0.2296
2023-06-04T01:53:42.016Z,0.2333
2023-06-04T01:54:42.037Z,0.2154
2023-06-04T01:55:42.033Z,0.2154
2023-06-04T01:56:42.043Z,0.2333
2023-06-04T01:57:42.041Z,0.1819
2023-06-04T01:58:42.081Z,0.1238
2023-06-04T01:59:42.091Z,0.1416
2023-06-04T02:00:41.109Z,0.1595
2023-06-04T02:01:41.174Z,0.1204
2023-06-04T02:02:41.209Z,0.1204
2023-06-04T02:03:41.220Z,0.04665
2023-06-04T02:04:41.216Z,0.01211
2023-06-04T02:05:41.242Z,0.01211
2023-06-04T02:06:41.241Z,0.0299
2023-06-04T02:07:41.272Z,0.04671
2023-06-04T02:08:41.286Z,0.01211
2023-06-04T02:09:41.313Z,-0.03839
2023-06-04T02:10:41.335Z,-0.0227
2023-06-04T02:11:41.336Z,0.008649
2023-06-04T02:12:41.384Z,0.02528
2023-06-04T02:13:41.355Z,0.04301
2023-06-04T02:14:41.373Z,0.04301
2023-06-04T02:15:41.393Z,-0.02599
2023-06-04T02:16:41.446Z,-0.02599
2023-06-04T02:17:41.477Z,-0.02599
2023-06-04T02:18:41.416Z,-0.02599
2023-06-04T02:19:41.421Z,-0.01038
2023-06-04T02:20:41.442Z,0.02225
2023-06-04T02:21:41.496Z,0.03988
2023-06-04T02:22:41.506Z,0.0575
2023-06-04T02:23:41.573Z,0.0575
2023-06-04T02:24:41.546Z,0.0575
2023-06-04T02:25:41.566Z,0.02225
2023-06-04T02:26:41.617Z,-0.05655
2023-06-04T02:27:41.596Z,-0.05649
2023-06-04T02:28:41.611Z,-0.1529
2023-06-04T02:29:41.634Z,-0.1372
2023-06-04T02:30:41.655Z,-0.1372
2023-06-04T02:31:41.702Z,-0.1372
2023-06-04T02:32:41.736Z,-0.172
2023-06-04T02:33:41.689Z,-0.2032
2023-06-04T02:34:41.715Z,-0.1876
2023-06-04T02:35:41.720Z,-0.1876
2023-06-04T02:36:41.730Z,-0.1918
2023-06-04T02:37:41.745Z,-0.2223
2023-06-04T02:38:41.747Z,-0.2223
2023-06-04T02:39:41.765Z,-0.2265
2023-06-04T02:40:41.759Z,-0.2265
2023-06-04T02:41:41.797Z,-0.2719
2023-06-04T02:42:41.827Z,-0.3181
2023-06-04T02:43:41.846Z,-0.287
2023-06-04T02:44:41.860Z,-0.2405
2023-06-04T02:45:41.893Z,-0.2595
2023-06-04T02:46:41.907Z,-0.2601
2023-06-04T02:47:41.970Z,-0.2601
2023-06-04T02:48:41.945Z,-0.2447
2023-06-04T02:49:41.975Z,-0.3067
2023-06-04T02:50:41.988Z,-0.2911
2023-06-04T02:51:42.009Z,-0.2756
2023-06-04T02:52:44.016Z,-0.2447
2023-06-04T02:53:42.038Z,-0.2292
2023-06-04T02:54:42.064Z,-0.2447
2023-06-04T02:55:42.071Z,-0.2595
2023-06-04T02:56:42.082Z,-0.2595
2023-06-04T02:57:42.083Z,-0.2598
2023-06-04T02:58:41.086Z,-0.2592
2023-06-04T02:59:41.107Z,-0.2443
2023-06-04T03:00:41.107Z,-0.2903
2023-06-04T03:01:41.127Z,-0.2595
2023-06-04T03:02:41.150Z,-0.2287
2023-06-04T03:03:41.165Z,-0.2485
2023-06-04T03:04:41.174Z,-0.2133
2023-06-04T03:05:41.185Z,-0.2595
2023-06-04T03:06:41.219Z,-0.3093
2023-06-04T03:07:41.232Z,-0.3093
2023-06-04T03:08:41.306Z,-0.3093
2023-06-04T03:09:41.276Z,-0.3093
2023-06-04T03:10:41.298Z,-0.2633
2023-06-04T03:11:41.323Z,-0.3254
2023-06-04T03:12:41.343Z,-0.3403
2023-06-04T03:13:41.365Z,-0.3407
2023-06-04T03:14:41.374Z,-0.3407
2023-06-04T03:15:41.450Z,-0.3254
2023-06-04T03:16:41.408Z,-0.3556
2023-06-04T03:17:41.484Z,-0.4016
2023-06-04T03:18:41.441Z,-0.4016
2023-06-04T03:19:41.454Z,-0.3817
2023-06-04T03:20:41.465Z,-0.3669
2023-06-04T03:21:41.466Z,-0.3822
2023-06-04T03:22:41.498Z,-0.3822
2023-06-04T03:23:41.586Z,-0.3669
2023-06-04T03:24:41.482Z,-0.3669
2023-06-04T03:25:41.497Z,-0.3867
2023-06-04T03:26:41.528Z,-0.4173
2023-06-04T03:27:41.555Z,-0.3816
2023-06-04T03:28:41.574Z,-0.3509
2023-06-04T03:29:41.607Z,-0.3662
2023-06-04T03:30:41.622Z,-0.3969
2023-06-04T03:31:41.672Z,-0.3969
2023-06-04T03:32:41.685Z,-0.3771
2023-06-04T03:33:41.689Z,-0.3617
2023-06-04T03:34:41.725Z,-0.3617
2023-06-04T03:35:41.735Z,-0.3925
2023-06-04T03:36:41.750Z,-0.4035
2023-06-04T03:37:41.764Z,-0.4498
2023-06-04T03:38:41.817Z,-0.4808
2023-06-04T03:39:41.811Z,-0.4618
2023-06-04T03:40:41.829Z,-0.4618
2023-06-04T03:41:41.870Z,-0.4308
2023-06-04T03:42:41.863Z,-0.369
2023-06-04T03:43:41.885Z,-0.3229
2023-06-04T03:44:41.904Z,-0.3338
2023-06-04T03:45:41.919Z,-0.3338
2023-06-04T03:46:41.939Z,-0.3294
2023-06-04T03:47:41.978Z,-0.2487
2023-06-04T03:48:41.919Z,-0.2405
2023-06-04T03:49:41.925Z,-0.2778
2023-06-04T03:50:41.980Z,-0.3203
2023-06-04T03:51:41.981Z,-0.3326
2023-06-04T03:52:42.014Z,-0.4071
2023-06-04T03:53:42.028Z,-0.4505
2023-06-04T03:54:42.046Z,-0.514
2023-06-04T03:55:42.083Z,-0.5421
2023-06-04T03:56:42.084Z,-0.5753
2023-06-04T03:57:41.105Z,-0.5753
2023-06-04T03:58:41.112Z,-0.5877
2023-06-04T03:59:41.130Z,-0.5877
2023-06-04T04:00:41.191Z,-0.5252
2023-06-04T04:01:41.220Z,-0.4906
2023-06-04T04:02:41.276Z,-0.5388
2023-06-04T04:03:41.348Z,-0.5228
2023-06-04T04:04:41.217Z,-0.5388
2023-06-04T04:05:41.224Z,-0.5035
2023-06-04T04:06:41.253Z,-0.4874
2023-06-04T04:07:41.252Z,-0.457
2023-06-04T04:08:41.252Z,-0.4088
2023-06-04T04:09:41.280Z,-0.394
2023-06-04T04:10:41.275Z,-0.3451
2023-06-04T04:11:41.293Z,-0.3451
2023-06-04T04:12:41.364Z,-0.2814
2023-06-04T04:13:41.352Z,-0.2613
2023-06-04T04:14:41.357Z,-0.2152
2023-06-04T04:15:41.382Z,-0.1992
2023-06-04T04:16:41.470Z,-0.2004
2023-06-04T04:17:41.450Z,-0.1328
2023-06-04T04:18:41.477Z,-0.1328
2023-06-04T04:19:41.482Z,-0.02033
2023-06-04T04:20:41.505Z,-0.004437
2023-06-04T04:21:41.524Z,0.05051
2023-06-04T04:22:41.554Z,0.03248
2023-06-04T04:23:41.633Z,0.1242
2023-06-04T04:24:41.595Z,0.08841
2023-06-04T04:25:41.602Z,0.03415
2023-06-04T04:26:41.630Z,0.05609
2023-06-04T04:27:41.653Z,0.05421
2023-06-04T04:28:41.657Z,0.07656
2023-06-04T04:29:41.672Z,0.05836
2023-06-04T04:30:41.721Z,0.09333
2023-06-04T04:31:41.810Z,0.1278
2023-06-04T04:32:41.718Z,0.1319
2023-06-04T04:33:41.745Z,0.2368
2023-06-04T04:34:41.709Z,0.255
2023-06-04T04:35:41.704Z,0.2732
2023-06-04T04:36:41.729Z,0.3137
2023-06-04T04:37:41.755Z,0.3663
2023-06-04T04:38:41.791Z,0.3696
2023-06-04T04:39:41.811Z,0.3877
2023-06-04T04:40:41.829Z,0.4296
2023-06-04T04:41:41.847Z,0.4818
2023-06-04T04:42:41.873Z,0.5344
2023-06-04T04:43:41.901Z,0.5377
2023-06-04T04:44:41.906Z,0.5959
2023-06-04T04:45:41.921Z,0.6653
2023-06-04T04:46:42.001Z,0.6712
2023-06-04T04:47:41.984Z,0.635
2023-06-04T04:48:41.965Z,0.691
2023-06-04T04:49:41.980Z,0.7255
2023-06-04T04:50:41.997Z,0.7837
2023-06-04T04:51:42.011Z,0.8708
2023-06-04T04:52:42.048Z,0.928
2023-06-04T04:53:42.030Z,0.9999
2023-06-04T04:54:42.027Z,1.093
2023-06-04T04:55:42.025Z,1.151
2023-06-04T04:56:42.053Z,1.222
2023-06-04T04:57:42.090Z,1.332
2023-06-04T04:58:42.082Z,1.385
2023-06-04T04:59:41.159Z,1.437
2023-06-04T05:00:41.149Z,1.547
2023-06-04T05:01:41.205Z,1.533
2023-06-04T05:02:41.182Z,1.568
2023-06-04T05:03:41.268Z,1.537
2023-06-04T05:04:41.279Z,1.593
2023-06-04T05:05:41.239Z,1.647
2023-06-04T05:06:41.289Z,1.722
2023-06-04T05:07:41.290Z,1.768
2023-06-04T05:08:41.307Z,1.833
2023-06-04T05:09:41.312Z,1.799
2023-06-04T05:10:41.352Z,1.755
2023-06-04T05:11:41.379Z,1.785
2023-06-04T05:12:41.381Z,1.822
2023-06-04T05:13:41.409Z,1.86
2023-06-04T05:14:41.390Z,1.943
2023-06-04T05:15:41.385Z,1.944
2023-06-04T05:16:43.485Z,1.889
2023-06-04T05:17:41.434Z,1.908
2023-06-04T05:18:41.443Z,1.964
2023-06-04T05:19:41.450Z,1.964
2023-06-04T05:20:41.485Z,2.002
2023-06-04T05:21:41.511Z,2.039
2023-06-04T05:22:41.538Z,2.077
2023-06-04T05:23:41.585Z,2.077
2023-06-04T05:24:41.571Z,2.132
2023-06-04T05:25:41.597Z,2.207
2023-06-04T05:26:41.597Z,2.244
2023-06-04T05:27:41.617Z,2.337
2023-06-04T05:28:41.638Z,2.337
2023-06-04T05:29:41.658Z,2.3
2023-06-04T05:30:41.700Z,2.281
2023-06-04T05:31:41.775Z,2.355
2023-06-04T05:32:41.954Z,2.392
2023-06-04T05:33:41.732Z,2.429
2023-06-04T05:34:41.738Z,2.372
2023-06-04T05:35:41.753Z,2.314
2023-06-04T05:36:41.778Z,2.332
2023-06-04T05:37:41.765Z,2.36
2023-06-04T05:38:41.778Z,2.444
2023-06-04T05:39:41.792Z,2.462
2023-06-04T05:40:41.791Z,2.575
2023-06-04T05:41:41.827Z,2.556
2023-06-04T05:42:41.837Z,2.572
2023-06-04T05:43:41.851Z,2.628
2023-06-04T05:44:41.877Z,2.494
2023-06-04T05:45:41.951Z,2.548
2023-06-04T05:46:41.950Z,2.44
2023-06-04T05:47:41.983Z,2.448
2023-06-04T05:48:41.974Z,2.541
2023-06-04T05:49:41.997Z,2.548
2023-06-04T05:50:42.017Z,2.721
2023-06-04T05:51:42.040Z,2.71
2023-06-04T05:52:42.050Z,2.707
2023-06-04T05:53:42.095Z,2.619
2023-06-04T05:54:41.103Z,2.751
2023-06-04T05:55:41.154Z,2.611
2023-06-04T05:56:41.148Z,2.726
2023-06-04T05:57:41.167Z,2.745
2023-06-04T05:58:41.176Z,2.686
2023-06-04T05:59:41.188Z,2.634
2023-06-04T06:00:41.197Z,2.385
2023-06-04T06:01:41.222Z,2.163
2023-06-04T06:02:41.344Z,2.03
2023-06-04T06:03:41.272Z,1.945
2023-06-04T06:04:41.474Z,1.418
2023-06-04T06:05:41.248Z,1.393
2023-06-04T06:06:41.256Z,1.21
2023-06-04T06:07:41.363Z,1.199
2023-06-04T06:08:41.298Z,1.044
2023-06-04T06:09:41.315Z,0.6443
2023-06-04T06:10:41.333Z,0.3971
2023-06-04T06:11:41.363Z,0.1767
2023-06-04T06:12:41.404Z,0.1611
2023-06-04T06:13:41.448Z,0.1203
2023-06-04T06:14:41.437Z,0.06839
2023-06-04T06:15:41.478Z,-0.003425
2023-06-04T06:16:41.461Z,-0.5696
2023-06-04T06:17:41.537Z,-0.6302
2023-06-04T06:18:41.514Z,-0.5663
2023-06-04T06:19:41.522Z,-0.3433
2023-06-04T06:20:41.532Z,-1.14
2023-06-04T06:21:41.546Z,-1.208
2023-06-04T06:22:41.549Z,-0.8961
2023-06-04T06:23:41.641Z,-1.25
2023-06-04T06:24:41.588Z,-1.389
2023-06-04T06:25:41.683Z,-1.369
2023-06-04T06:26:41.604Z,-1.53
2023-06-04T06:27:41.635Z,-1.604
2023-06-04T06:28:41.619Z,-1.857
2023-06-04T06:29:41.626Z,-1.778
2023-06-04T06:30:41.648Z,-1.977
2023-06-04T06:31:41.745Z,-1.929
2023-06-04T06:32:41.744Z,-2.023
2023-06-04T06:33:41.728Z,-2.141
2023-06-04T06:34:41.768Z,-2.161
2023-06-04T06:35:41.774Z,-2.167
2023-06-04T06:36:41.801Z,-2.234
2023-06-04T06:37:41.814Z,-2.355
2023-06-04T06:38:41.916Z,-2.342
2023-06-04T06:39:41.894Z,-2.415
2023-06-04T06:40:41.880Z,-2.792
2023-06-04T06:41:41.904Z,-2.454
2023-06-04T06:42:41.917Z,-2.531
2023-06-04T06:43:41.943Z,-2.45
2023-06-04T06:44:41.972Z,-2.987
2023-06-04T06:45:41.979Z,-3.376
2023-06-04T06:46:42.033Z,-3.671
2023-06-04T06:47:42.084Z,-3.027
2023-06-04T06:48:42.014Z,-3.281
2023-06-04T06:49:42.035Z,-3.527
2023-06-04T06:50:42.052Z,-3.561
2023-06-04T06:51:42.057Z,-4.049
2023-06-04T06:52:42.071Z,-3.758
2023-06-04T06:53:42.098Z,-4.476
2023-06-04T06:54:41.094Z,-4.692
2023-06-04T06:55:41.111Z,-4.694
2023-06-04T06:56:41.131Z,-4.872
2023-06-04T06:57:41.162Z,-5.165
2023-06-04T06:58:41.179Z,-5.311
2023-06-04T06:59:41.209Z,-5.9
2023-06-04T07:00:41.256Z,-5.271
2023-06-04T07:01:41.268Z,-5.852
2023-06-04T07:02:41.412Z,-5.795
2023-06-04T07:03:41.327Z,-5.886
2023-06-04T07:04:41.324Z,-5.756
2023-06-04T07:05:41.359Z,-5.538
2023-06-04T07:06:41.362Z,-5.692
2023-06-04T07:07:41.374Z,-5.527
2023-06-04T07:08:41.402Z,-5.391
2023-06-04T07:09:41.415Z,-5.437
2023-06-04T07:10:41.434Z,-5.725
2023-06-04T07:11:41.447Z,-6.526
2023-06-04T07:12:43.632Z,-6.002
2023-06-04T07:13:41.468Z,-6.405
2023-06-04T07:14:41.472Z,-6.291
2023-06-04T07:15:41.487Z,-6.495
2023-06-04T07:16:41.522Z,-6.28
2023-06-04T07:17:41.550Z,-6.674
2023-06-04T07:18:41.500Z,-6.789
2023-06-04T07:19:41.512Z,-6.672
2023-06-04T07:20:41.547Z,-6.523
2023-06-04T07:21:41.572Z,-6.871
2023-06-04T07:22:41.578Z,-6.711
2023-06-04T07:23:41.655Z,-6.878
2023-06-04T07:24:41.633Z,-6.511
2023-06-04T07:25:41.660Z,-6.012
2023-06-04T07:26:41.699Z,-6.023
2023-06-04T07:27:41.725Z,-6.817
2023-06-04T07:28:41.708Z,-6.072
2023-06-04T07:29:41.745Z,-6.77
2023-06-04T07:30:41.750Z,-6.6
2023-06-04T07:31:41.790Z,-6.779
2023-06-04T07:32:41.801Z,-6.675
2023-06-04T07:33:41.794Z,-6.83
2023-06-04T07:34:41.794Z,-7.07
2023-06-04T07:35:41.794Z,-7.276
2023-06-04T07:36:41.796Z,-7.145
2023-06-04T07:37:41.809Z,-8.295
2023-06-04T07:38:41.860Z,-7.646
2023-06-04T07:39:41.845Z,-8.408
2023-06-04T07:40:41.857Z,-7.993
2023-06-04T07:41:41.886Z,-7.85
2023-06-04T07:42:41.917Z,-7.358
2023-06-04T07:43:41.960Z,-7.654
2023-06-04T07:44:41.974Z,-7.269
2023-06-04T07:45:41.977Z,-7.149
2023-06-04T07:46:42.130Z,-7.788
2023-06-04T07:47:42.038Z,-7.61
2023-06-04T07:48:42.051Z,-7.474
2023-06-04T07:49:50.888Z,-7.845
2023-06-04T07:50:42.067Z,-9.166
2023-06-04T07:51:42.081Z,-8.552
2023-06-04T07:52:41.266Z,-8.572
2023-06-04T07:53:41.201Z,-8.518
2023-06-04T07:54:41.185Z,-8.771
2023-06-04T07:55:41.187Z,-8.417
2023-06-04T07:56:41.206Z,-8.251
2023-06-04T07:57:41.208Z,-7.699
2023-06-04T07:58:41.233Z,-7.355
2023-06-04T07:59:41.276Z,-7.789
2023-06-04T08:00:41.210Z,-7.881
2023-06-04T08:01:41.253Z,-6.896
2023-06-04T08:02:41.422Z,-7.223
2023-06-04T08:03:41.498Z,-7.604
2023-06-04T08:04:41.381Z,-8.153
2023-06-04T08:05:41.306Z,-8.377
2023-06-04T08:06:41.322Z,-7.867
2023-06-04T08:07:41.398Z,-7.826
2023-06-04T08:08:41.362Z,-7.826
2023-06-04T08:09:41.360Z,-7.765
2023-06-04T08:10:41.386Z,-7.386
2023-06-04T08:11:41.392Z,-7.463
2023-06-04T08:12:41.433Z,-7.271
2023-06-04T08:13:41.464Z,-8.024
2023-06-04T08:14:41.456Z,-7.482
2023-06-04T08:15:41.435Z,-8.072
2023-06-04T08:16:41.668Z,-8.011
2023-06-04T08:17:41.518Z,-7.834
2023-06-04T08:18:41.479Z,-7.419
2023-06-04T08:19:41.461Z,-6.67
2023-06-04T08:20:41.500Z,-7.732
2023-06-04T08:21:41.506Z,-7.923
2023-06-04T08:22:41.544Z,-8.399
2023-06-04T08:23:41.578Z,-7.665
2023-06-04T08:24:41.573Z,-7.578
2023-06-04T08:25:41.603Z,-7.425
2023-06-04T08:26:41.620Z,-7.444
2023-06-04T08:27:41.634Z,-7.41
2023-06-04T08:28:41.663Z,-7.844
2023-06-04T08:29:41.776Z,-7.645
2023-06-04T08:30:41.706Z,-7.888
2023-06-04T08:31:41.806Z,-7.55
2023-06-04T08:32:41.774Z,-7.442
2023-06-04T08:33:41.792Z,-7.696
2023-06-04T08:34:41.784Z,-7.995
2023-06-04T08:35:41.814Z,-8.224
2023-06-04T08:36:41.817Z,-8.415
2023-06-04T08:37:41.862Z,-7.828
2023-06-04T08:38:41.870Z,-7.554
2023-06-04T08:39:41.863Z,-7.645
2023-06-04T08:40:41.881Z,-7.377
2023-06-04T08:41:41.875Z,-7.267
2023-06-04T08:42:41.891Z,-7.68
2023-06-04T08:43:41.882Z,-8.029
2023-06-04T08:44:41.905Z,-8.45
2023-06-04T08:45:42.161Z,-8.378
2023-06-04T08:46:42.011Z,-7.82
2023-06-04T08:47:42.052Z,-7.016
2023-06-04T08:48:42.004Z,-7.557
2023-06-04T08:49:42.028Z,-7.47
2023-06-04T08:50:42.046Z,-7.483
2023-06-04T08:51:42.071Z,-7.07
2023-06-04T08:52:41.125Z,-6.929
2023-06-04T08:53:41.164Z,-6.641
2023-06-04T08:54:41.139Z,-6.226
2023-06-04T08:55:41.164Z,-6.22
2023-06-04T08:56:41.188Z,-5.988
2023-06-04T08:57:41.209Z,-5.509
2023-06-04T08:58:41.248Z,-5.557
2023-06-04T08:59:41.242Z,-4.99
2023-06-04T09:00:41.253Z,-5.619
2023-06-04T09:01:41.351Z,-5.407
2023-06-04T09:02:41.326Z,-5.206
2023-06-04T09:03:41.332Z,-5.1
2023-06-04T09:04:41.318Z,-3.807
2023-06-04T09:05:41.326Z,-3.362
2023-06-04T09:06:41.369Z,-3.947
2023-06-04T09:07:41.349Z,-3.737
2023-06-04T09:08:41.350Z,-3.781
2023-06-04T09:09:41.388Z,-3.32
2023-06-04T09:10:41.372Z,-3.116
2023-06-04T09:11:41.397Z,-2.828
2023-06-04T09:12:41.413Z,-2.878
2023-06-04T09:13:41.443Z,-2.523
2023-06-04T09:14:41.488Z,-2.268
2023-06-04T09:15:41.515Z,-2.377
2023-06-04T09:16:41.491Z,-2.021
2023-06-04T09:17:41.533Z,-2.332
2023-06-04T09:18:41.549Z,-2.332
2023-06-04T09:19:41.559Z,-2.218
2023-06-04T09:20:41.563Z,-2.1
2023-06-04T09:21:41.581Z,-2.254
2023-06-04T09:22:41.620Z,-1.895
2023-06-04T09:23:41.646Z,-1.859
2023-06-04T09:24:41.620Z,-1.923
2023-06-04T09:25:41.639Z,-1.981
2023-06-04T09:26:41.641Z,-1.131
2023-06-04T09:27:41.697Z,-1.57
2023-06-04T09:28:41.667Z,-1.507
2023-06-04T09:29:41.673Z,-1.446
2023-06-04T09:30:41.715Z,-1.572
2023-06-04T09:31:41.849Z,-1.131
2023-06-04T09:32:41.765Z,-0.7705
2023-06-04T09:33:41.764Z,-1.156
2023-06-04T09:34:41.791Z,-0.9578
2023-06-04T09:35:41.824Z,-1.033
2023-06-04T09:36:41.844Z,-0.8939
2023-06-04T09:37:41.864Z,-1.283
2023-06-04T09:38:41.868Z,-1.109
2023-06-04T09:39:41.893Z,-1.338
2023-06-04T09:40:41.941Z,-0.5815
2023-06-04T09:41:42.019Z,-0.6195
2023-06-04T09:42:42.024Z,-1.258
2023-06-04T09:43:42.062Z,-0.3587
2023-06-04T09:44:42.093Z,0.00004966
2023-06-04T09:45:42.064Z,-0.1746
2023-06-04T09:46:42.096Z,0.03954
2023-06-04T09:47:42.149Z,-0.05066
2023-06-04T09:48:42.089Z,-0.1382
2023-06-04T09:49:42.116Z,-0.3236
2023-06-04T09:50:42.112Z,-0.5037
2023-06-04T09:51:42.045Z,-0.007058
2023-06-04T09:52:42.101Z,-0.3916
2023-06-04T09:53:42.129Z,-0.1992
2023-06-04T09:54:41.099Z,-0.4004
2023-06-04T09:55:41.129Z,-0.2902
2023-06-04T09:56:41.186Z,-0.6237
2023-06-04T09:57:41.216Z,-0.1402
2023-06-04T09:58:44.161Z,-0.08218
2023-06-04T09:59:41.221Z,0.006465
2023-06-04T10:00:41.257Z,-0.2829
2023-06-04T10:01:41.337Z,-0.238
2023-06-04T10:02:41.324Z,0.1636
2023-06-04T10:03:41.429Z,0.05534
2023-06-04T10:04:41.320Z,-0.04592
2023-06-04T10:05:41.339Z,0.2542
2023-06-04T10:06:41.337Z,0.3861
2023-06-04T10:07:41.360Z,-0.3053
2023-06-04T10:08:41.385Z,-0.09309
2023-06-04T10:09:41.383Z,-0.07861
2023-06-04T10:10:41.416Z,-0.1491
2023-06-04T10:11:41.426Z,0.05893
2023-06-04T10:12:41.411Z,-0.3883
2023-06-04T10:13:41.423Z,-0.4421
2023-06-04T10:14:41.460Z,0.1767
2023-06-04T10:15:41.435Z,0.6247
2023-06-04T10:16:41.493Z,0.2774
2023-06-04T10:17:41.533Z,-0.03676
2023-06-04T10:18:41.492Z,0.5097
2023-06-04T10:19:41.556Z,0.5839
2023-06-04T10:20:41.542Z,0.6169
2023-06-04T10:21:41.584Z,0.492
2023-06-04T10:22:41.582Z,0.01573
2023-06-04T10:23:41.662Z,0.937
2023-06-04T10:24:41.651Z,1.083
2023-06-04T10:25:41.676Z,0.1866
2023-06-04T10:26:41.692Z,0.3134
2023-06-04T10:27:41.701Z,0.08944
2023-06-04T10:28:41.723Z,0.4218
2023-06-04T10:29:41.746Z,0.3362
2023-06-04T10:30:41.766Z,1.406
2023-06-04T10:31:41.797Z,1.117
2023-06-04T10:32:41.850Z,0.9381
2023-06-04T10:33:41.812Z,1.216
2023-06-04T10:34:41.826Z,0.0444
2023-06-04T10:35:41.827Z,0.1655
2023-06-04T10:36:41.829Z,0.7798
2023-06-04T10:37:41.858Z,0.5432
2023-06-04T10:38:41.848Z,0.7707
2023-06-04T10:39:41.860Z,-0.002292
2023-06-04T10:40:41.898Z,-0.2048
2023-06-04T10:41:41.917Z,-0.1248
2023-06-04T10:42:41.935Z,-0.1688
2023-06-04T10:43:41.961Z,0.1623
2023-06-04T10:44:41.983Z,-0.0384
2023-06-04T10:45:42.034Z,0.3077
2023-06-04T10:46:42.276Z,-0.4275
2023-06-04T10:47:42.332Z,-0.2351
2023-06-04T10:48:42.079Z,-0.02401
2023-06-04T10:49:41.097Z,-0.0384
2023-06-04T10:50:41.115Z,0.1022
2023-06-04T10:51:41.125Z,0.5205
2023-06-04T10:52:41.185Z,0.8256
2023-06-04T10:53:41.173Z,0.8748
2023-06-04T10:54:41.195Z,1.276
2023-06-04T10:55:41.198Z,1.16
2023-06-04T10:56:41.212Z,0.9323
2023-06-04T10:57:41.232Z,1.142
2023-06-04T10:58:41.235Z,1.646
2023-06-04T10:59:41.256Z,1.432
2023-06-04T11:00:41.249Z,1.432
2023-06-04T11:01:41.284Z,1.349
2023-06-04T11:02:41.265Z,1.449
2023-06-04T11:03:41.326Z,0.7053
2023-06-04T11:04:41.322Z,0.9654
2023-06-04T11:05:41.332Z,1.313
2023-06-04T11:06:41.397Z,1.853
2023-06-04T11:07:41.399Z,0.9244
2023-06-04T11:08:41.400Z,0.735
2023-06-04T11:09:41.416Z,0.7187
2023-06-04T11:10:41.452Z,0.7716
2023-06-04T11:11:41.458Z,1.162
2023-06-04T11:12:41.485Z,1.246
2023-06-04T11:13:41.531Z,1.143
2023-06-04T11:14:41.522Z,1.279
2023-06-04T11:15:42.464Z,1.337
2023-06-04T11:16:41.570Z,1.057
2023-06-04T11:17:41.582Z,1.109
2023-06-04T11:18:41.621Z,1.04
2023-06-04T11:19:41.608Z,0.8532
2023-06-04T11:20:41.612Z,1.299
2023-06-04T11:21:41.620Z,1.825
2023-06-04T11:22:41.625Z,2.256
2023-06-04T11:23:41.645Z,2.075
2023-06-04T11:24:41.636Z,1.974
2023-06-04T11:25:41.665Z,2.273
2023-06-04T11:26:47.940Z,2.713
2023-06-04T11:27:41.675Z,2.552
2023-06-04T11:28:41.712Z,2.724
2023-06-04T11:29:41.728Z,2.994
2023-06-04T11:30:41.769Z,2.718
2023-06-04T11:31:41.829Z,3.076
2023-06-04T11:32:41.839Z,3.158
2023-06-04T11:33:41.807Z,2.817
2023-06-04T11:34:41.832Z,2.651
2023-06-04T11:35:41.865Z,2.606
2023-06-04T11:36:41.898Z,2.415
2023-06-04T11:37:41.925Z,2.29
2023-06-04T11:38:41.900Z,2.567
2023-06-04T11:39:41.913Z,2.567
2023-06-04T11:40:41.926Z,2.158
2023-06-04T11:41:41.948Z,2.232
2023-06-04T11:42:41.968Z,2.12
2023-06-04T11:43:41.980Z,2.948
2023-06-04T11:44:41.993Z,3.146
2023-06-04T11:45:41.997Z,3.368
2023-06-04T11:46:42.005Z,3.63
2023-06-04T11:47:42.131Z,3.053
2023-06-04T11:48:42.069Z,3.352
2023-06-04T11:49:42.029Z,3.11
2023-06-04T11:50:42.062Z,3.343
2023-06-04T11:51:41.106Z,3.116
2023-06-04T11:52:41.112Z,2.964
2023-06-04T11:53:41.131Z,3.151
2023-06-04T11:54:41.160Z,3.345
2023-06-04T11:55:41.188Z,3.447
2023-06-04T11:56:41.222Z,3.268
2023-06-04T11:57:41.271Z,3.015
2023-06-04T11:58:41.256Z,3.171
2023-06-04T11:59:41.270Z,3.325
2023-06-04T12:00:41.293Z,3.105
2023-06-04T12:01:41.308Z,3.141
2023-06-04T12:02:41.417Z,3.269
2023-06-04T12:03:41.415Z,2.825
2023-06-04T12:04:41.344Z,3.335
2023-06-04T12:05:41.404Z,3.422
2023-06-04T12:06:41.370Z,2.516
2023-06-04T12:07:41.389Z,2.469
2023-06-04T12:08:41.395Z,2.968
2023-06-04T12:09:41.410Z,2.508
2023-06-04T12:10:41.468Z,2.472
2023-06-04T12:11:41.423Z,2.686
2023-06-04T12:12:41.433Z,3.465
2023-06-04T12:13:41.468Z,3.558
2023-06-04T12:14:41.581Z,3.475
2023-06-04T12:15:41.515Z,3.525
2023-06-04T12:16:41.556Z,3.081
2023-06-04T12:17:41.609Z,3.12
2023-06-04T12:18:41.592Z,3.374
2023-06-04T12:19:41.752Z,3.273
2023-06-04T12:20:41.625Z,2.862
2023-06-04T12:21:41.633Z,3.067
2023-06-04T12:22:41.658Z,2.982
2023-06-04T12:23:41.714Z,3.67
2023-06-04T12:24:41.697Z,3.777
2023-06-04T12:25:41.734Z,3.493
2023-06-04T12:26:41.819Z,3.232
2023-06-04T12:27:41.743Z,3.164
2023-06-04T12:28:41.765Z,3.29
2023-06-04T12:29:41.778Z,2.8